createdAt,value
2018-03-03T00:00:57.344Z,55.70
2018-03-03T00:03:24.803Z,55.70
2018-03-03T00:05:52.252Z,55.80
2018-03-03T00:08:19.697Z,55.80
2018-03-03T00:10:47.133Z,55.80
2018-03-03T00:13:14.588Z,55.90
2018-03-03T00:15:42.068Z,55.90
2018-03-03T00:18:09.513Z,56.30
2018-03-03T00:20:36.983Z,56.50
2018-03-03T00:23:04.449Z,57.00
2018-03-03T00:25:31.918Z,56.30
2018-03-03T00:27:59.391Z,56.50
2018-03-03T00:30:26.833Z,56.70
2018-03-03T00:32:54.275Z,56.40
2018-03-03T00:35:21.713Z,57.00
2018-03-03T00:37:49.147Z,56.30
2018-03-03T00:40:16.604Z,56.60
2018-03-03T00:42:44.823Z,56.70
2018-03-03T00:45:12.286Z,56.60
2018-03-03T00:47:39.720Z,56.90
2018-03-03T00:50:07.175Z,56.90
2018-03-03T00:52:34.652Z,56.90
2018-03-03T00:55:02.115Z,56.90
2018-03-03T00:57:29.591Z,56.90
2018-03-03T00:59:56.995Z,57.00
2018-03-03T01:02:24.431Z,58.50
2018-03-03T01:04:52.765Z,57.40
2018-03-03T01:07:20.220Z,57.30
2018-03-03T01:09:47.669Z,57.30
2018-03-03T01:12:15.105Z,57.30
2018-03-03T01:14:42.615Z,57.30
2018-03-03T01:17:09.994Z,57.20
2018-03-03T01:19:38.227Z,57.30
2018-03-03T01:22:05.672Z,57.30
2018-03-03T01:24:33.136Z,57.40
2018-03-03T01:27:00.585Z,57.40
2018-03-03T01:29:28.028Z,57.80
2018-03-03T01:31:55.474Z,57.80
2018-03-03T01:34:22.910Z,57.80
2018-03-03T01:36:51.115Z,57.80
2018-03-03T01:39:18.596Z,57.70
2018-03-03T01:41:46.061Z,57.80
2018-03-03T01:44:13.491Z,57.80
2018-03-03T01:46:40.931Z,57.80
2018-03-03T01:49:08.429Z,58.80
2018-03-03T01:51:41.868Z,58.40
2018-03-03T01:54:10.110Z,58.20
2018-03-03T01:56:37.555Z,58.20
2018-03-03T01:59:05.015Z,58.20
2018-03-03T02:01:32.485Z,58.30
2018-03-03T02:04:00.036Z,58.30
2018-03-03T02:06:27.482Z,58.30
2018-03-03T02:08:54.942Z,58.50
2018-03-03T02:11:22.394Z,58.50
2018-03-03T02:13:49.850Z,58.50
2018-03-03T02:16:17.329Z,58.60
2018-03-03T02:18:44.784Z,58.60
2018-03-03T02:21:12.232Z,58.70
2018-03-03T02:23:39.708Z,58.70
2018-03-03T02:26:07.148Z,58.50
2018-03-03T02:28:34.601Z,58.40
2018-03-03T02:31:02.082Z,58.70
2018-03-03T02:33:29.551Z,59.40
2018-03-03T02:35:57.003Z,58.90
2018-03-03T02:38:24.463Z,58.80
2018-03-03T02:40:51.905Z,58.70
2018-03-03T02:43:19.347Z,59.10
2018-03-03T02:45:46.805Z,58.80
2018-03-03T02:48:14.244Z,58.80
2018-03-03T02:50:41.694Z,58.90
2018-03-03T02:53:09.180Z,59.10
2018-03-03T02:55:36.646Z,59.00
2018-03-03T02:58:04.100Z,58.70
2018-03-03T03:00:31.556Z,59.00
2018-03-03T03:02:59.007Z,59.00
2018-03-03T03:05:26.451Z,59.10
2018-03-03T03:07:53.896Z,59.20
2018-03-03T03:10:21.342Z,59.40
2018-03-03T03:12:49.562Z,59.50
2018-03-03T03:15:17.121Z,59.40
2018-03-03T03:17:44.578Z,59.50
2018-03-03T03:20:12.026Z,59.50
2018-03-03T03:22:39.478Z,59.40
2018-03-03T03:25:06.929Z,59.30
2018-03-03T03:27:34.377Z,59.40
2018-03-03T03:30:01.820Z,59.40
2018-03-03T03:32:30.032Z,59.90
2018-03-03T03:34:57.490Z,59.90
2018-03-03T03:37:24.933Z,59.50
2018-03-03T03:39:52.370Z,59.70
2018-03-03T03:42:20.571Z,59.60
2018-03-03T03:44:48.007Z,59.50
2018-03-03T03:47:15.448Z,59.50
2018-03-03T03:49:43.662Z,59.80
2018-03-03T03:52:11.140Z,59.70
2018-03-03T03:54:38.584Z,59.90
2018-03-03T03:57:06.038Z,59.70
2018-03-03T03:59:33.472Z,59.70
2018-03-03T04:02:00.919Z,59.70
2018-03-03T04:04:28.370Z,59.70
2018-03-03T04:06:56.578Z,59.60
2018-03-03T04:09:24.020Z,59.60
2018-03-03T04:11:51.486Z,59.50
2018-03-03T04:14:18.927Z,59.50
2018-03-03T04:16:46.419Z,59.50
2018-03-03T04:19:13.869Z,59.60
2018-03-03T04:21:41.315Z,60.40
2018-03-03T04:24:08.791Z,60.00
2018-03-03T04:26:36.253Z,59.90
2018-03-03T04:29:03.705Z,59.90
2018-03-03T04:31:31.170Z,59.80
2018-03-03T04:33:58.607Z,59.80
2018-03-03T04:36:26.044Z,59.80
2018-03-03T04:38:53.480Z,59.70
2018-03-03T04:41:21.712Z,59.80
2018-03-03T04:43:49.155Z,59.70
2018-03-03T04:46:16.628Z,59.70
2018-03-03T04:48:44.098Z,59.80
2018-03-03T04:51:11.544Z,59.80
2018-03-03T04:53:38.985Z,59.90
2018-03-03T04:56:06.453Z,60.00
2018-03-03T04:58:50.619Z,59.90
2018-03-03T05:01:20.515Z,59.90
2018-03-03T05:04:02.838Z,60.20
2018-03-03T05:06:47.991Z,60.10
2018-03-03T05:09:15.437Z,60.80
2018-03-03T05:11:42.888Z,61.30
2018-03-03T05:14:16.028Z,60.70
2018-03-03T05:17:00.310Z,60.30
2018-03-03T05:19:34.167Z,60.20
2018-03-03T05:22:16.511Z,60.20
2018-03-03T05:24:50.426Z,60.30
2018-03-03T05:27:24.552Z,61.40
2018-03-03T05:30:09.664Z,61.30
2018-03-03T05:32:42.876Z,61.30
2018-03-03T05:35:15.961Z,60.90
2018-03-03T05:37:49.085Z,61.80
2018-03-03T05:40:22.972Z,61.60
2018-03-03T05:42:54.996Z,61.50
2018-03-03T05:45:28.295Z,61.10
2018-03-03T05:48:01.352Z,61.00
2018-03-03T05:50:35.409Z,60.50
2018-03-03T05:53:18.523Z,60.50
2018-03-03T05:55:51.672Z,60.50
2018-03-03T05:58:25.617Z,61.00
2018-03-03T06:01:12.954Z,61.00
2018-03-03T06:04:00.171Z,60.70
2018-03-03T06:06:30.148Z,60.70
2018-03-03T06:08:58.182Z,60.60
2018-03-03T06:11:26.389Z,61.80
2018-03-03T06:13:54.599Z,62.20
2018-03-03T06:16:22.033Z,62.10
2018-03-03T06:18:49.492Z,61.50
2018-03-03T06:21:16.927Z,61.10
2018-03-03T06:23:45.155Z,61.20
2018-03-03T06:26:12.611Z,61.10
2018-03-03T06:28:40.051Z,61.00
2018-03-03T06:31:07.529Z,60.80
2018-03-03T06:33:34.987Z,62.90
2018-03-03T06:36:02.447Z,62.20
2018-03-03T06:38:29.911Z,61.60
2018-03-03T06:40:57.376Z,62.60
2018-03-03T06:43:24.822Z,62.20
2018-03-03T06:45:52.376Z,62.10
2018-03-03T06:48:19.837Z,62.60
2018-03-03T06:50:47.299Z,61.90
2018-03-03T06:53:14.747Z,61.60
2018-03-03T06:55:42.197Z,61.40
2018-03-03T06:58:09.674Z,61.30
2018-03-03T07:00:37.119Z,61.20
2018-03-03T07:03:04.590Z,61.40
2018-03-03T07:05:32.053Z,61.40
2018-03-03T07:07:59.492Z,61.40
2018-03-03T07:10:27.131Z,61.40
2018-03-03T07:12:55.323Z,61.20
2018-03-03T07:15:26.414Z,61.20
2018-03-03T07:17:54.650Z,61.30
2018-03-03T07:20:22.129Z,61.10
2018-03-03T07:22:49.768Z,61.30
2018-03-03T07:25:17.230Z,62.80
2018-03-03T07:27:44.683Z,62.10
2018-03-03T07:30:12.114Z,61.70
2018-03-03T07:32:39.549Z,61.50
2018-03-03T07:35:07.777Z,61.60
2018-03-03T07:37:35.229Z,61.50
2018-03-03T07:40:02.686Z,61.60
2018-03-03T07:42:30.126Z,62.40
2018-03-03T07:44:57.581Z,61.90
2018-03-03T07:47:25.026Z,61.80
2018-03-03T07:49:52.463Z,61.50
2018-03-03T07:52:20.721Z,61.60
2018-03-03T07:54:48.180Z,61.50
2018-03-03T07:57:15.626Z,61.40
2018-03-03T07:59:43.090Z,61.20
2018-03-03T08:02:10.539Z,61.20
2018-03-03T08:04:38.007Z,61.30
2018-03-03T08:07:05.462Z,61.80
2018-03-03T08:09:32.911Z,62.70
2018-03-03T08:12:00.375Z,62.00
2018-03-03T08:14:27.821Z,61.60
2018-03-03T08:16:55.271Z,61.70
2018-03-03T08:19:22.841Z,62.30
2018-03-03T08:21:50.398Z,62.50
2018-03-03T08:24:17.858Z,62.00
2018-03-03T08:26:45.314Z,61.80
2018-03-03T08:29:12.762Z,61.60
2018-03-03T08:31:40.222Z,61.60
2018-03-03T08:34:07.687Z,61.60
2018-03-03T08:36:35.124Z,62.00
2018-03-03T08:39:02.575Z,61.70
2018-03-03T08:41:30.019Z,62.00
2018-03-03T08:43:57.465Z,62.30
2018-03-03T08:46:24.903Z,61.80
2018-03-03T08:48:53.118Z,62.20
2018-03-03T08:51:20.610Z,62.20
2018-03-03T08:53:48.033Z,62.00
2018-03-03T08:56:15.502Z,62.70
2018-03-03T08:58:42.932Z,62.00
2018-03-03T09:01:10.399Z,62.10
2018-03-03T09:03:37.827Z,62.80
2018-03-03T09:06:06.051Z,62.10
2018-03-03T09:08:33.487Z,62.10
2018-03-03T09:11:00.931Z,62.00
2018-03-03T09:13:28.381Z,61.80
2018-03-03T09:15:56.610Z,62.00
2018-03-03T09:18:24.058Z,62.00
2018-03-03T09:20:51.516Z,63.90
2018-03-03T09:23:18.986Z,64.00
2018-03-03T09:25:46.429Z,64.00
2018-03-03T09:28:13.861Z,63.10
2018-03-03T09:30:41.334Z,64.40
2018-03-03T09:33:08.760Z,64.20
2018-03-03T09:35:36.275Z,63.30
2018-03-03T09:38:03.734Z,62.70
2018-03-03T09:40:31.189Z,62.70
2018-03-03T09:42:58.748Z,62.80
2018-03-03T09:45:26.178Z,63.80
2018-03-03T09:47:53.629Z,63.00
2018-03-03T09:50:21.067Z,63.80
2018-03-03T09:52:48.535Z,62.70
2018-03-03T09:55:15.978Z,63.70
2018-03-03T09:57:43.420Z,63.10
2018-03-03T10:00:11.645Z,64.40
2018-03-03T10:02:39.079Z,64.30
2018-03-03T10:05:06.527Z,63.80
2018-03-03T10:07:33.989Z,63.30
2018-03-03T10:10:01.421Z,63.10
2018-03-03T10:12:28.865Z,63.80
2018-03-03T10:14:56.314Z,62.30
2018-03-03T10:17:23.846Z,62.00
2018-03-03T10:19:51.282Z,61.80
2018-03-03T10:22:18.714Z,62.70
2018-03-03T10:24:46.919Z,62.00
2018-03-03T10:27:14.391Z,62.00
2018-03-03T10:29:41.809Z,61.80
2018-03-03T10:32:11.798Z,61.90
2018-03-03T10:34:39.237Z,61.80
2018-03-03T10:37:06.679Z,62.90
2018-03-03T10:39:34.123Z,64.50
2018-03-03T10:42:01.579Z,64.60
2018-03-03T10:44:29.008Z,63.90
2018-03-03T10:46:57.230Z,63.90
2018-03-03T10:49:24.671Z,63.80
2018-03-03T10:51:52.106Z,63.80
2018-03-03T10:54:19.563Z,63.30
2018-03-03T10:56:47.773Z,64.20
2018-03-03T10:59:15.229Z,64.10
2018-03-03T11:01:42.661Z,64.60
2018-03-03T11:04:10.112Z,65.10
2018-03-03T11:06:37.549Z,64.80
2018-03-03T11:09:04.991Z,64.30
2018-03-03T11:11:32.430Z,64.60
2018-03-03T11:13:59.868Z,64.50
2018-03-03T11:16:27.302Z,64.00
2018-03-03T11:18:55.505Z,63.00
2018-03-03T11:21:22.939Z,63.00
2018-03-03T11:23:50.382Z,62.70
2018-03-03T11:26:18.575Z,62.70
2018-03-03T11:28:46.032Z,62.50
2018-03-03T11:31:13.494Z,63.10
2018-03-03T11:33:40.946Z,63.10
2018-03-03T11:36:08.394Z,62.90
2018-03-03T11:38:35.837Z,63.10
2018-03-03T11:41:04.051Z,62.90
2018-03-03T11:43:31.495Z,63.00
2018-03-03T11:45:58.935Z,63.00
2018-03-03T11:48:27.145Z,63.30
2018-03-03T11:50:54.583Z,63.30
2018-03-03T11:53:22.034Z,63.50
2018-03-03T11:55:49.475Z,63.40
2018-03-03T11:58:17.752Z,63.40
2018-03-03T12:00:45.906Z,64.40
2018-03-03T12:03:13.366Z,63.70
2018-03-03T12:05:40.797Z,63.30
2018-03-03T12:08:08.249Z,63.70
2018-03-03T12:10:36.449Z,64.00
2018-03-03T12:13:03.894Z,64.00
2018-03-03T12:15:31.332Z,63.90
2018-03-03T12:17:58.786Z,64.00
2018-03-03T12:20:26.241Z,63.60
2018-03-03T12:22:53.695Z,63.90
2018-03-03T12:25:21.177Z,63.90
2018-03-03T12:27:48.616Z,64.10
2018-03-03T12:30:16.072Z,63.90
2018-03-03T12:32:43.494Z,64.50
2018-03-03T12:35:11.727Z,63.80
2018-03-03T12:37:39.162Z,63.70
2018-03-03T12:40:06.614Z,64.00
2018-03-03T12:42:34.052Z,64.60
2018-03-03T12:45:01.510Z,64.20
2018-03-03T12:47:28.983Z,65.20
2018-03-03T12:49:57.151Z,65.10
2018-03-03T12:52:24.586Z,65.00
2018-03-03T12:54:52.826Z,65.10
2018-03-03T12:57:20.260Z,65.00
2018-03-03T12:59:47.729Z,64.90
2018-03-03T13:02:15.179Z,65.40
2018-03-03T13:04:42.730Z,66.00
2018-03-03T13:07:10.148Z,65.80
2018-03-03T13:09:38.354Z,64.70
2018-03-03T13:12:05.785Z,64.70
2018-03-03T13:14:34.000Z,66.20
2018-03-03T13:17:01.430Z,66.20
2018-03-03T13:19:29.011Z,65.70
2018-03-03T13:21:56.433Z,66.30
2018-03-03T13:24:24.650Z,64.30
2018-03-03T13:26:52.100Z,64.30
2018-03-03T13:29:19.539Z,64.20
2018-03-03T13:31:46.984Z,64.70
2018-03-03T13:34:15.199Z,63.80
2018-03-03T13:36:42.648Z,63.80
2018-03-03T13:39:10.249Z,63.90
2018-03-03T13:41:37.768Z,64.80
2018-03-03T13:44:05.248Z,65.80
2018-03-03T13:46:32.693Z,65.60
2018-03-03T13:49:00.157Z,65.60
2018-03-03T13:51:27.598Z,64.80
2018-03-03T13:53:55.139Z,64.90
2018-03-03T13:56:22.613Z,64.30
2018-03-03T13:58:50.069Z,64.20
2018-03-03T14:01:17.527Z,66.00
2018-03-03T14:03:44.962Z,66.40
2018-03-03T14:06:12.396Z,65.20
2018-03-03T14:08:40.754Z,64.50
2018-03-03T14:11:08.201Z,64.50
2018-03-03T14:13:35.682Z,64.30
2018-03-03T14:16:03.122Z,64.80
2018-03-03T14:18:30.568Z,65.70
2018-03-03T14:20:58.013Z,65.00
2018-03-03T14:23:25.451Z,65.70
2018-03-03T14:25:52.904Z,66.90
2018-03-03T14:28:20.345Z,65.10
2018-03-03T14:30:48.553Z,64.70
2018-03-03T14:33:15.998Z,64.70
2018-03-03T14:35:43.453Z,65.70
2018-03-03T14:38:10.883Z,65.00
2018-03-03T14:40:39.098Z,65.80
2018-03-03T14:43:06.533Z,65.80
2018-03-03T14:45:33.986Z,66.10
2018-03-03T14:48:02.187Z,65.60
2018-03-03T14:50:29.623Z,65.60
2018-03-03T14:52:57.062Z,65.70
2018-03-03T14:55:25.283Z,65.40
2018-03-03T14:57:52.724Z,65.40
2018-03-03T15:00:20.169Z,65.50
2018-03-03T15:02:47.618Z,66.30
2018-03-03T15:05:15.025Z,66.60
2018-03-03T15:07:42.467Z,65.80
2018-03-03T15:10:09.899Z,66.40
2018-03-03T15:12:37.343Z,65.70
2018-03-03T15:15:05.544Z,65.30
2018-03-03T15:17:32.968Z,65.30
2018-03-03T15:20:01.182Z,65.60
2018-03-03T15:22:28.669Z,65.60
2018-03-03T15:24:56.114Z,65.30
2018-03-03T15:27:23.555Z,65.20
2018-03-03T15:29:50.983Z,65.20
2018-03-03T15:32:18.433Z,65.80
2018-03-03T15:34:46.623Z,66.10
2018-03-03T15:37:14.068Z,66.00
2018-03-03T15:39:42.281Z,66.50
2018-03-03T15:42:09.716Z,66.40
2018-03-03T15:44:37.158Z,66.30
2018-03-03T15:47:05.370Z,66.10
2018-03-03T15:49:32.804Z,66.10
2018-03-03T15:52:00.254Z,66.00
2018-03-03T15:54:27.684Z,66.10
2018-03-03T15:56:55.138Z,66.40
2018-03-03T15:59:22.559Z,66.70
2018-03-03T16:01:49.997Z,66.00
2018-03-03T16:04:17.440Z,65.80
2018-03-03T16:06:45.705Z,66.70
2018-03-03T16:09:13.922Z,66.00
2018-03-03T16:11:41.476Z,66.00
2018-03-03T16:14:08.907Z,66.10
2018-03-03T16:16:37.124Z,66.70
2018-03-03T16:19:04.571Z,66.60
2018-03-03T16:21:31.991Z,66.30
2018-03-03T16:23:59.458Z,66.80
2018-03-03T16:26:27.649Z,65.80
2018-03-03T16:28:55.087Z,65.70
2018-03-03T16:31:22.532Z,65.60
2018-03-03T16:33:49.940Z,66.40
2018-03-03T16:36:17.371Z,65.90
2018-03-03T16:38:44.805Z,66.50
2018-03-03T16:41:13.004Z,65.90
2018-03-03T16:43:40.439Z,65.90
2018-03-03T16:46:07.881Z,66.00
2018-03-03T16:48:36.089Z,66.20
2018-03-03T16:51:03.545Z,66.10
2018-03-03T16:53:30.987Z,66.20
2018-03-03T16:55:59.175Z,65.90
2018-03-03T16:58:26.649Z,65.80
2018-03-03T17:00:54.171Z,66.00
2018-03-03T17:03:22.389Z,65.70
2018-03-03T17:05:49.819Z,65.60
2018-03-03T17:08:17.261Z,65.60
2018-03-03T17:10:45.489Z,66.30
2018-03-03T17:13:13.709Z,66.60
2018-03-03T17:15:41.914Z,66.50
2018-03-03T17:18:09.362Z,66.40
2018-03-03T17:20:36.863Z,66.50
2018-03-03T17:23:04.332Z,66.70
2018-03-03T17:25:31.775Z,67.00
2018-03-03T17:27:59.422Z,66.80
2018-03-03T17:30:26.924Z,67.50
2018-03-03T17:32:54.360Z,66.80
2018-03-03T17:35:21.811Z,66.40
2018-03-03T17:37:49.268Z,66.10
2018-03-03T17:40:16.711Z,66.00
2018-03-03T17:42:44.160Z,66.00
2018-03-03T17:45:11.607Z,66.30
2018-03-03T17:47:39.057Z,65.90
2018-03-03T17:50:06.491Z,65.80
2018-03-03T17:52:34.704Z,67.10
2018-03-03T17:55:02.136Z,66.30
2018-03-03T17:57:29.679Z,66.00
2018-03-03T17:59:57.872Z,65.70
2018-03-03T18:02:25.314Z,65.70
2018-03-03T18:04:53.565Z,65.60
2018-03-03T18:07:20.969Z,65.60
2018-03-03T18:09:48.411Z,65.60
2018-03-03T18:12:16.606Z,65.70
2018-03-03T18:14:44.049Z,65.70
2018-03-03T18:17:11.543Z,65.60
2018-03-03T18:19:38.981Z,65.60
2018-03-03T18:22:06.430Z,65.50
2018-03-03T18:24:36.501Z,65.60
2018-03-03T18:27:03.947Z,65.60
2018-03-03T18:29:31.489Z,65.60
2018-03-03T18:31:58.931Z,65.60
2018-03-03T18:34:26.386Z,65.60
2018-03-03T18:36:53.813Z,65.80
2018-03-03T18:39:22.030Z,66.80
2018-03-03T18:41:49.473Z,66.10
2018-03-03T18:44:16.914Z,65.90
2018-03-03T18:46:45.116Z,65.80
2018-03-03T18:49:12.570Z,65.80
2018-03-03T18:51:40.003Z,65.80
2018-03-03T18:54:08.221Z,65.90
2018-03-03T18:56:35.649Z,65.90
2018-03-03T18:59:03.094Z,66.00
2018-03-03T19:01:31.299Z,65.70
2018-03-03T19:03:58.741Z,65.70
2018-03-03T19:06:26.178Z,65.60
2018-03-03T19:08:54.400Z,65.60
2018-03-03T19:11:21.865Z,65.60
2018-03-03T19:13:49.298Z,65.80
2018-03-03T19:16:16.743Z,65.70
2018-03-03T19:18:44.184Z,65.70
2018-03-03T19:21:11.637Z,65.80
2018-03-03T19:23:39.858Z,65.90
2018-03-03T19:26:07.279Z,65.70
2018-03-03T19:28:34.768Z,65.80
2018-03-03T19:31:02.228Z,65.80
2018-03-03T19:33:29.667Z,65.80
2018-03-03T19:35:57.100Z,65.80
2018-03-03T19:38:25.311Z,65.80
2018-03-03T19:40:52.760Z,65.80
2018-03-03T19:43:20.183Z,65.80
2018-03-03T19:45:48.460Z,65.70
2018-03-03T19:48:16.737Z,66.50
2018-03-03T19:50:44.935Z,65.80
2018-03-03T19:53:12.368Z,65.70
2018-03-03T19:55:40.576Z,65.80
2018-03-03T19:58:08.004Z,65.70
2018-03-03T20:00:36.199Z,65.70
2018-03-03T20:03:03.649Z,65.70
2018-03-03T20:05:31.094Z,65.70
2018-03-03T20:07:59.294Z,65.80
2018-03-03T20:10:26.764Z,65.80
2018-03-03T20:12:54.192Z,65.80
2018-03-03T20:15:22.392Z,65.90
2018-03-03T20:17:49.827Z,65.90
2018-03-03T20:20:18.025Z,65.90
2018-03-03T20:22:45.475Z,65.80
2018-03-03T20:25:12.916Z,65.80
2018-03-03T20:27:41.152Z,65.90
2018-03-03T20:30:08.583Z,65.90
2018-03-03T20:32:36.031Z,66.00
2018-03-03T20:35:03.495Z,66.00
2018-03-03T20:37:30.921Z,66.00
2018-03-03T20:39:58.372Z,66.00
2018-03-03T20:42:26.571Z,66.10
2018-03-03T20:44:54.015Z,66.00
2018-03-03T20:47:21.451Z,66.10
2018-03-03T20:49:48.894Z,66.10
2018-03-03T20:52:16.325Z,66.10
2018-03-03T20:54:43.765Z,66.00
2018-03-03T20:57:11.231Z,66.00
2018-03-03T20:59:38.685Z,66.00
2018-03-03T21:02:06.100Z,66.00
2018-03-03T21:04:34.345Z,66.10
2018-03-03T21:07:01.770Z,66.00
2018-03-03T21:09:29.225Z,66.00
2018-03-03T21:11:59.528Z,66.10
2018-03-03T21:14:26.972Z,66.10
2018-03-03T21:16:55.165Z,66.10
2018-03-03T21:19:22.600Z,66.10
2018-03-03T21:21:50.813Z,66.10
2018-03-03T21:24:18.235Z,66.10
2018-03-03T21:26:46.446Z,66.10
2018-03-03T21:29:13.908Z,66.00
2018-03-03T21:31:41.340Z,66.80
2018-03-03T21:34:08.825Z,66.10
2018-03-03T21:36:36.263Z,66.10
2018-03-03T21:39:03.698Z,66.10
2018-03-03T21:41:31.918Z,66.10
2018-03-03T21:43:59.375Z,66.10
2018-03-03T21:46:26.844Z,66.20
2018-03-03T21:48:54.264Z,66.20
2018-03-03T21:51:21.700Z,66.20
2018-03-03T21:53:49.916Z,66.20
2018-03-03T21:56:17.387Z,66.20
2018-03-03T21:58:44.825Z,66.30
2018-03-03T22:01:12.261Z,66.30
2018-03-03T22:03:39.749Z,66.20
2018-03-03T22:06:07.198Z,66.20
2018-03-03T22:08:34.627Z,66.20
2018-03-03T22:11:02.064Z,66.30
2018-03-03T22:13:30.300Z,66.40
2018-03-03T22:15:57.766Z,66.20
2018-03-03T22:18:25.201Z,66.60
2018-03-03T22:20:52.661Z,66.40
2018-03-03T22:23:20.091Z,66.30
2018-03-03T22:25:47.532Z,66.30
2018-03-03T22:28:15.727Z,66.40
2018-03-03T22:30:43.162Z,66.30
2018-03-03T22:33:11.419Z,66.30
2018-03-03T22:35:39.667Z,66.50
2018-03-03T22:38:07.114Z,66.60
2018-03-03T22:40:34.540Z,66.30
2018-03-03T22:43:02.746Z,66.30
2018-03-03T22:45:30.285Z,66.30
2018-03-03T22:47:57.722Z,66.20
2018-03-03T22:50:25.925Z,66.20
2018-03-03T22:52:53.385Z,66.20
2018-03-03T22:55:20.806Z,66.20
2018-03-03T22:57:49.017Z,66.20
2018-03-03T23:00:16.453Z,66.20
2018-03-03T23:02:44.656Z,66.30
2018-03-03T23:05:12.100Z,66.30
2018-03-03T23:07:39.539Z,66.20
2018-03-03T23:10:07.744Z,66.30
2018-03-03T23:12:35.176Z,66.30
2018-03-03T23:15:02.608Z,66.30
2018-03-03T23:17:30.054Z,66.30
2018-03-03T23:19:57.479Z,66.50
2018-03-03T23:22:24.916Z,66.50
2018-03-03T23:24:52.403Z,66.60
2018-03-03T23:27:19.856Z,66.60
2018-03-03T23:29:47.294Z,66.40
2018-03-03T23:32:14.750Z,66.60
2018-03-03T23:34:42.190Z,66.40
2018-03-03T23:37:09.643Z,66.50
2018-03-03T23:39:37.832Z,66.70
2018-03-03T23:42:05.286Z,66.60
2018-03-03T23:44:32.716Z,66.80
2018-03-03T23:47:00.165Z,66.70
2018-03-03T23:49:27.596Z,66.60
2018-03-03T23:51:55.040Z,66.60
2018-03-03T23:54:22.461Z,66.70
2018-03-03T23:56:50.648Z,66.90
2018-03-03T23:59:18.095Z,66.80
